BXS2487 LFBC-LFRB
Flight info
| Callsign | BXS2487 |
|---|---|
| Flight time | 0h 53m |
| Altitude | 32000 |
| Route | ROYAN |
| Aircraft | B736/M-SDE2FGIR/LB1 |
Departure
| Time | 2026-05-04 13:34 |
|---|---|
| Airport | Cazaux (BA 120) Air Base (LFBC) |
Arrival
| Time | 2026-05-04 14:28 |
|---|---|
| Airport | Brest Bretagne airport (LFRB) |
| Time | Latitude | Longitude | Altitude | Speed | Heading |
|---|---|---|---|---|---|
| 2026-05-04 13:32 | 44.53956 | -1.11364 | 94 ft | 0 kts | 237° |
| 2026-05-04 13:34 | 44.53956 | -1.11365 | 94 ft | 0 kts | 238° |
| 2026-05-04 13:34 | 44.53818 | -1.11659 | 89 ft | 82 kts | 238° |
| 2026-05-04 13:34 | 44.53354 | -1.12659 | 155 ft | 153 kts | 239° |
| 2026-05-04 13:34 | 44.52873 | -1.14051 | 831 ft | 157 kts | 290° |
| 2026-05-04 13:35 | 44.53554 | -1.14875 | 1982 ft | 128 kts | 0° |
| 2026-05-04 13:35 | 44.52653 | -1.13410 | 727 ft | 168 kts | 162° |
| 2026-05-04 13:35 | 44.51674 | -1.12387 | 789 ft | 191 kts | 119° |
| 2026-05-04 13:36 | 44.51395 | -1.10712 | 832 ft | 170 kts | 70° |
| 2026-05-04 13:36 | 44.52038 | -1.09461 | 634 ft | 158 kts | 15° |
| 2026-05-04 13:36 | 44.53037 | -1.09461 | 485 ft | 131 kts | 335° |
| 2026-05-04 13:36 | 44.53729 | -1.10136 | 560 ft | 127 kts | 304° |
| 2026-05-04 13:37 | 44.53930 | -1.11317 | 1514 ft | 124 kts | 267° |
| 2026-05-04 13:37 | 44.53643 | -1.12442 | 2799 ft | 131 kts | 244° |
| 2026-05-04 13:37 | 44.52989 | -1.13659 | 3285 ft | 190 kts | 244° |
| 2026-05-04 13:37 | 44.52726 | -1.15013 | 3242 ft | 241 kts | 272° |
| 2026-05-04 13:38 | 44.53764 | -1.18358 | 3234 ft | 336 kts | 312° |
| 2026-05-04 13:38 | 44.55823 | -1.20318 | 3183 ft | 366 kts | 337° |
| 2026-05-04 13:38 | 44.58265 | -1.20834 | 3166 ft | 348 kts | 4° |
| 2026-05-04 13:38 | 44.60479 | -1.19805 | 3231 ft | 332 kts | 29° |
| 2026-05-04 13:39 | 44.62029 | -1.17542 | 3472 ft | 310 kts | 63° |
| 2026-05-04 13:39 | 44.62342 | -1.14858 | 4963 ft | 259 kts | 98° |
| 2026-05-04 13:39 | 44.61842 | -1.12380 | 5479 ft | 288 kts | 101° |
| 2026-05-04 13:39 | 44.62043 | -1.09340 | 5220 ft | 340 kts | 68° |
| 2026-05-04 13:40 | 44.63368 | -1.06561 | 5072 ft | 344 kts | 40° |
| 2026-05-04 13:40 | 44.65417 | -1.04986 | 4991 ft | 333 kts | 12° |
| 2026-05-04 13:40 | 44.67676 | -1.04938 | 4952 ft | 324 kts | 345° |
| 2026-05-04 13:40 | 44.69823 | -1.05873 | 4940 ft | 322 kts | 337° |
| 2026-05-04 13:41 | 44.71875 | -1.07014 | 4938 ft | 321 kts | 336° |
| 2026-05-04 13:41 | 44.73952 | -1.08191 | 4926 ft | 321 kts | 336° |
| 2026-05-04 13:41 | 44.76065 | -1.09206 | 4917 ft | 319 kts | 341° |
| 2026-05-04 13:42 | 44.80243 | -1.10303 | 4902 ft | 288 kts | 352° |
| 2026-05-04 13:42 | 44.82168 | -1.10487 | 5074 ft | 265 kts | 354° |
| 2026-05-04 13:42 | 44.83966 | -1.10551 | 5384 ft | 258 kts | 356° |
| 2026-05-04 13:42 | 44.85856 | -1.10554 | 5916 ft | 285 kts | 358° |
| 2026-05-04 13:43 | 44.87901 | -1.10504 | 6770 ft | 295 kts | 359° |
| 2026-05-04 13:43 | 44.89933 | -1.10410 | 8072 ft | 291 kts | 0° |
| 2026-05-04 13:43 | 44.91952 | -1.10288 | 9233 ft | 293 kts | 0° |
| 2026-05-04 13:43 | 44.94016 | -1.10145 | 10181 ft | 301 kts | 1° |
| 2026-05-04 13:44 | 44.96183 | -1.09984 | 10629 ft | 327 kts | 1° |
| 2026-05-04 13:44 | 44.98540 | -1.09799 | 11075 ft | 348 kts | 1° |
| 2026-05-04 13:44 | 44.99330 | -1.09734 | 11331 ft | 351 kts | 2° |
| 2026-05-04 13:44 | 45.00710 | -1.09617 | 11814 ft | 355 kts | 2° |
| 2026-05-04 13:45 | 45.03191 | -1.09402 | 12757 ft | 360 kts | 2° |
| 2026-05-04 13:45 | 45.05706 | -1.09181 | 13658 ft | 365 kts | 2° |
| 2026-05-04 13:45 | 45.08267 | -1.08953 | 14467 ft | 371 kts | 2° |
| 2026-05-04 13:45 | 45.10860 | -1.08722 | 15272 ft | 376 kts | 2° |
| 2026-05-04 13:46 | 45.13487 | -1.08488 | 16067 ft | 381 kts | 2° |
| 2026-05-04 13:46 | 45.15290 | -1.08327 | 16603 ft | 385 kts | 3° |
| 2026-05-04 13:46 | 45.17948 | -1.08090 | 17371 ft | 391 kts | 3° |
| 2026-05-04 13:46 | 45.20684 | -1.07845 | 18159 ft | 397 kts | 3° |
| 2026-05-04 13:47 | 45.23460 | -1.07597 | 18854 ft | 402 kts | 3° |
| 2026-05-04 13:47 | 45.26273 | -1.07345 | 19574 ft | 406 kts | 3° |
| 2026-05-04 13:47 | 45.29107 | -1.07091 | 20290 ft | 410 kts | 3° |
| 2026-05-04 13:47 | 45.31974 | -1.06834 | 20999 ft | 414 kts | 3° |
| 2026-05-04 13:48 | 45.34867 | -1.06574 | 21689 ft | 419 kts | 3° |
| 2026-05-04 13:48 | 45.37795 | -1.06311 | 22385 ft | 424 kts | 4° |
| 2026-05-04 13:48 | 45.40720 | -1.06048 | 23074 ft | 428 kts | 4° |
| 2026-05-04 13:48 | 45.43711 | -1.05779 | 23712 ft | 433 kts | 4° |
| 2026-05-04 13:49 | 45.46738 | -1.05506 | 24271 ft | 438 kts | 4° |
| 2026-05-04 13:49 | 45.49793 | -1.05230 | 24813 ft | 442 kts | 4° |
| 2026-05-04 13:49 | 45.52886 | -1.04951 | 25351 ft | 447 kts | 4° |
| 2026-05-04 13:49 | 45.56010 | -1.04669 | 25891 ft | 452 kts | 4° |
| 2026-05-04 13:50 | 45.59164 | -1.04383 | 26410 ft | 457 kts | 4° |
| 2026-05-04 13:50 | 45.62358 | -1.04123 | 26922 ft | 461 kts | 0° |
| 2026-05-04 13:50 | 45.65552 | -1.04642 | 27380 ft | 465 kts | 344° |
| 2026-05-04 13:50 | 45.68568 | -1.06293 | 27888 ft | 464 kts | 328° |
| 2026-05-04 13:51 | 45.71209 | -1.08919 | 28421 ft | 462 kts | 316° |
| 2026-05-04 13:51 | 45.73664 | -1.11914 | 28922 ft | 466 kts | 315° |
| 2026-05-04 13:51 | 45.76107 | -1.14999 | 29379 ft | 470 kts | 314° |
| 2026-05-04 13:51 | 45.78556 | -1.18116 | 29940 ft | 471 kts | 314° |
| 2026-05-04 13:52 | 45.83450 | -1.24293 | 31302 ft | 464 kts | 314° |
| 2026-05-04 13:52 | 45.85879 | -1.27326 | 31834 ft | 463 kts | 315° |
| 2026-05-04 13:52 | 45.88280 | -1.30314 | 31941 ft | 460 kts | 315° |
| 2026-05-04 13:53 | 45.90687 | -1.33302 | 31963 ft | 457 kts | 315° |
| 2026-05-04 13:53 | 45.95511 | -1.39298 | 31986 ft | 460 kts | 315° |
| 2026-05-04 13:54 | 46.02801 | -1.48386 | 31967 ft | 462 kts | 315° |
| 2026-05-04 13:55 | 46.10067 | -1.57474 | 31964 ft | 459 kts | 315° |
| 2026-05-04 13:55 | 46.17279 | -1.66531 | 31968 ft | 457 kts | 315° |
| 2026-05-04 13:56 | 46.22068 | -1.72565 | 31969 ft | 457 kts | 315° |
| 2026-05-04 13:57 | 46.29251 | -1.81642 | 31968 ft | 458 kts | 315° |
| 2026-05-04 13:58 | 46.38262 | -1.93074 | 31963 ft | 459 kts | 315° |
| 2026-05-04 13:58 | 46.45464 | -2.02249 | 31960 ft | 460 kts | 315° |
| 2026-05-04 13:59 | 46.50267 | -2.08386 | 31962 ft | 460 kts | 315° |
| 2026-05-04 14:00 | 46.57468 | -2.17615 | 31966 ft | 460 kts | 315° |
| 2026-05-04 14:00 | 46.64631 | -2.26829 | 31964 ft | 460 kts | 315° |
| 2026-05-04 14:01 | 46.69423 | -2.33012 | 31969 ft | 460 kts | 315° |
| 2026-05-04 14:02 | 46.76600 | -2.42302 | 31965 ft | 459 kts | 315° |
| 2026-05-04 14:02 | 46.81369 | -2.48495 | 31969 ft | 458 kts | 315° |
| 2026-05-04 14:03 | 46.86127 | -2.54687 | 31974 ft | 458 kts | 315° |
| 2026-05-04 14:03 | 46.90877 | -2.60886 | 31970 ft | 457 kts | 315° |
| 2026-05-04 14:04 | 46.97971 | -2.70171 | 31972 ft | 456 kts | 315° |
| 2026-05-04 14:04 | 47.02692 | -2.76370 | 31970 ft | 455 kts | 315° |
| 2026-05-04 14:05 | 47.09729 | -2.85638 | 31551 ft | 458 kts | 315° |
| 2026-05-04 14:05 | 47.12093 | -2.88760 | 30898 ft | 456 kts | 315° |
| 2026-05-04 14:06 | 47.14444 | -2.91866 | 30411 ft | 450 kts | 315° |
| 2026-05-04 14:06 | 47.16761 | -2.94930 | 29852 ft | 446 kts | 315° |
| 2026-05-04 14:06 | 47.19051 | -2.97964 | 29268 ft | 441 kts | 315° |
| 2026-05-04 14:06 | 47.21315 | -3.00966 | 28738 ft | 434 kts | 315° |
| 2026-05-04 14:07 | 47.23547 | -3.03929 | 28218 ft | 429 kts | 315° |
| 2026-05-04 14:07 | 47.25747 | -3.06856 | 27709 ft | 424 kts | 315° |
| 2026-05-04 14:07 | 47.27922 | -3.09752 | 27199 ft | 419 kts | 315° |
| 2026-05-04 14:07 | 47.30078 | -3.12626 | 26698 ft | 415 kts | 315° |
| 2026-05-04 14:08 | 47.32212 | -3.15475 | 26192 ft | 412 kts | 315° |
| 2026-05-04 14:08 | 47.34297 | -3.18262 | 25717 ft | 409 kts | 315° |
| 2026-05-04 14:08 | 47.36396 | -3.21070 | 25242 ft | 406 kts | 316° |
| 2026-05-04 14:08 | 47.38480 | -3.23861 | 24765 ft | 403 kts | 316° |
| 2026-05-04 14:09 | 47.42614 | -3.29406 | 23828 ft | 399 kts | 316° |
| 2026-05-04 14:09 | 47.44663 | -3.32159 | 23331 ft | 398 kts | 316° |
| 2026-05-04 14:10 | 47.48737 | -3.37641 | 22304 ft | 392 kts | 315° |
| 2026-05-04 14:10 | 47.50745 | -3.40347 | 21838 ft | 389 kts | 315° |
| 2026-05-04 14:10 | 47.52736 | -3.43033 | 21383 ft | 386 kts | 315° |
| 2026-05-04 14:10 | 47.54710 | -3.45699 | 20920 ft | 383 kts | 315° |
| 2026-05-04 14:11 | 47.56668 | -3.48347 | 20465 ft | 380 kts | 315° |
| 2026-05-04 14:11 | 47.60543 | -3.53596 | 19582 ft | 374 kts | 315° |
| 2026-05-04 14:11 | 47.62456 | -3.56190 | 19138 ft | 371 kts | 315° |
| 2026-05-04 14:12 | 47.64330 | -3.58734 | 18709 ft | 368 kts | 315° |
| 2026-05-04 14:12 | 47.66214 | -3.61297 | 18270 ft | 366 kts | 315° |
| 2026-05-04 14:12 | 47.69939 | -3.66368 | 17291 ft | 360 kts | 315° |
| 2026-05-04 14:13 | 47.71773 | -3.68868 | 16857 ft | 356 kts | 315° |
| 2026-05-04 14:13 | 47.73592 | -3.71352 | 16408 ft | 353 kts | 315° |
| 2026-05-04 14:13 | 47.75397 | -3.73817 | 15962 ft | 351 kts | 315° |
| 2026-05-04 14:13 | 47.77185 | -3.76263 | 15526 ft | 348 kts | 316° |
| 2026-05-04 14:14 | 47.78957 | -3.78689 | 15097 ft | 345 kts | 316° |
| 2026-05-04 14:14 | 47.82448 | -3.83476 | 14251 ft | 341 kts | 316° |
| 2026-05-04 14:14 | 47.84188 | -3.85864 | 13828 ft | 340 kts | 316° |
| 2026-05-04 14:15 | 47.87646 | -3.90617 | 12900 ft | 336 kts | 316° |
| 2026-05-04 14:15 | 47.91055 | -3.95312 | 12022 ft | 331 kts | 316° |
| 2026-05-04 14:16 | 47.94408 | -3.99940 | 11179 ft | 326 kts | 316° |
| 2026-05-04 14:16 | 47.96065 | -4.02229 | 10760 ft | 323 kts | 316° |
| 2026-05-04 14:17 | 47.99310 | -4.06717 | 10287 ft | 309 kts | 316° |
| 2026-05-04 14:17 | 48.00847 | -4.08846 | 10148 ft | 301 kts | 316° |
| 2026-05-04 14:17 | 48.03852 | -4.13016 | 9685 ft | 293 kts | 316° |
| 2026-05-04 14:18 | 48.05343 | -4.15088 | 9347 ft | 292 kts | 316° |
| 2026-05-04 14:18 | 48.08282 | -4.19176 | 8693 ft | 286 kts | 317° |
| 2026-05-04 14:19 | 48.11183 | -4.23217 | 8048 ft | 283 kts | 317° |
| 2026-05-04 14:19 | 48.12618 | -4.25218 | 7733 ft | 281 kts | 317° |
| 2026-05-04 14:19 | 48.14042 | -4.27206 | 7414 ft | 279 kts | 317° |
| 2026-05-04 14:19 | 48.15454 | -4.29179 | 7111 ft | 277 kts | 317° |
| 2026-05-04 14:20 | 48.16858 | -4.31142 | 6811 ft | 275 kts | 317° |
| 2026-05-04 14:20 | 48.18255 | -4.33095 | 6494 ft | 274 kts | 317° |
| 2026-05-04 14:20 | 48.19643 | -4.35038 | 6177 ft | 272 kts | 317° |
| 2026-05-04 14:21 | 48.22389 | -4.38890 | 5542 ft | 269 kts | 317° |
| 2026-05-04 14:21 | 48.23754 | -4.40806 | 5236 ft | 268 kts | 317° |
| 2026-05-04 14:21 | 48.25122 | -4.42715 | 4741 ft | 269 kts | 323° |
| 2026-05-04 14:21 | 48.26647 | -4.44280 | 4380 ft | 271 kts | 332° |
| 2026-05-04 14:22 | 48.28120 | -4.46072 | 4048 ft | 272 kts | 317° |
| 2026-05-04 14:22 | 48.29388 | -4.48122 | 3874 ft | 263 kts | 316° |
| 2026-05-04 14:22 | 48.30615 | -4.50081 | 3725 ft | 249 kts | 318° |
| 2026-05-04 14:22 | 48.31809 | -4.51877 | 3627 ft | 237 kts | 320° |
| 2026-05-04 14:23 | 48.34020 | -4.55050 | 3478 ft | 201 kts | 323° |
| 2026-05-04 14:23 | 48.35000 | -4.56417 | 3435 ft | 185 kts | 324° |
| 2026-05-04 14:23 | 48.35934 | -4.57721 | 3372 ft | 181 kts | 324° |
| 2026-05-04 14:24 | 48.36849 | -4.59006 | 3238 ft | 184 kts | 324° |
| 2026-05-04 14:24 | 48.37788 | -4.60322 | 3027 ft | 184 kts | 322° |
| 2026-05-04 14:24 | 48.38796 | -4.61439 | 2877 ft | 179 kts | 354° |
| 2026-05-04 14:24 | 48.39943 | -4.61022 | 2664 ft | 176 kts | 52° |
| 2026-05-04 14:25 | 48.40596 | -4.59483 | 2464 ft | 177 kts | 69° |
| 2026-05-04 14:25 | 48.41545 | -4.56050 | 2016 ft | 176 kts | 76° |
| 2026-05-04 14:25 | 48.41944 | -4.54308 | 1766 ft | 171 kts | 76° |
| 2026-05-04 14:26 | 48.42310 | -4.52697 | 1530 ft | 153 kts | 78° |
| 2026-05-04 14:26 | 48.42591 | -4.51190 | 1338 ft | 148 kts | 82° |
| 2026-05-04 14:26 | 48.42909 | -4.49756 | 1167 ft | 140 kts | 77° |
| 2026-05-04 14:26 | 48.43266 | -4.48294 | 995 ft | 154 kts | 66° |
| 2026-05-04 14:27 | 48.43566 | -4.46986 | 1280 ft | 106 kts | 77° |
| 2026-05-04 14:27 | 48.43737 | -4.45957 | 998 ft | 107 kts | 69° |
| 2026-05-04 14:27 | 48.44030 | -4.44851 | 675 ft | 115 kts | 62° |
| 2026-05-04 14:27 | 48.44345 | -4.43778 | 389 ft | 107 kts | 63° |
| 2026-05-04 14:28 | 48.44561 | -4.42832 | 303 ft | 80 kts | 73° |
| 2026-05-04 14:28 | 48.44692 | -4.42226 | 309 ft | 43 kts | 72° |